This is the latest recevied weather packets stored in our database for station/object N5JXS. If no packets are shown the sender has not sent any weather packets the latest 10 day(s).
| Time | Temp. | Humidity | Pressure | Rain* | Wind** | Luminosity | Snow |
|---|---|---|---|---|---|---|---|
| 1777247300 | 10.56° C | 61% | 1006.2 hPa | 0 mm | - | 83 W/m² | - |
| 1777246998 | 10° C | 62% | 1005.8 hPa | 0 mm | - | 206 W/m² | - |
| 1777246694 | 10.56° C | 55% | 1006.3 hPa | 0 mm | - | 205 W/m² | - |
| 1777246390 | 10° C | 53% | 1006.3 hPa | 0 mm | - | 79 W/m² | - |
| 1777246088 | 10° C | 55% | 1006.2 hPa | 0 mm | - | 48 W/m² | - |
| 1777245785 | 10° C | 55% | 1005.9 hPa | 0 mm | - | 26 W/m² | - |
| 1777245483 | 10° C | 55% | 1005.9 hPa | 0 mm | - | 24 W/m² | - |
| 1777245178 | 10° C | 54% | 1005.7 hPa | 0 mm | - | 39 W/m² | - |
| 1777244874 | 10° C | 53% | 1005.9 hPa | 0 mm | - | 46 W/m² | - |
| 1777244570 | 10.56° C | 52% | 1005.7 hPa | 0 mm | - | 56 W/m² | - |
| 1777244266 | 10.56° C | 51% | 1005.5 hPa | 0 mm | - | 93 W/m² | - |
| 1777243965 | 10.56° C | 48% | 1005.7 hPa | 0 mm | - | 104 W/m² | - |
| 1777243661 | 10.56° C | 51% | 1005.3 hPa | 0 mm | - | 114 W/m² | - |
| 1777243358 | 10.56° C | 51% | 1005.8 hPa | 0 mm | - | 138 W/m² | - |
| 1777243053 | 11.11° C | 50% | 1005.8 hPa | 0 mm | - | 98 W/m² | - |
| 1777242751 | 10.56° C | 52% | 1005.7 hPa | 0 mm | - | 127 W/m² | - |
| 1777242447 | 10.56° C | 57% | 1005.9 hPa | 0 mm | - | 150 W/m² | - |
| 1777242144 | 10° C | 58% | 1005.7 hPa | 0 mm | - | 61 W/m² | - |
| 1777241841 | 9.44° C | 65% | 1005.8 hPa | 0 mm | - | 141 W/m² | - |
| 1777241538 | 8.33° C | 68% | 1006.2 hPa | 0 mm | - | 171 W/m² | - |
| 1777241236 | 7.78° C | 71% | 1006.8 hPa | 0 mm | - | 230 W/m² | - |
| 1777240933 | 6.67° C | 75% | 1006.7 hPa | 0 mm | - | 259 W/m² | - |
| 1777240631 | 6.67° C | 75% | 1007.2 hPa | 0 mm | - | 143 W/m² | - |
| 1777240329 | 6.67° C | 73% | 1007.3 hPa | 0 mm | - | 98 W/m² | - |
| 1777240025 | 6.11° C | 78% | 1007.3 hPa | 0 mm | - | 38 W/m² | - |
* Rain latest hour (hover to see other rain measurements)
** Current wind speed in m/s (hover to see current wind gust speed)